createdAt,value
2019-03-12T00:00:34.028Z,97543.52
2019-03-12T00:01:24.873Z,97530.27
2019-03-12T00:02:16.209Z,97541.64
2019-03-12T00:03:07.450Z,97530.00
2019-03-12T00:03:58.416Z,97537.05
2019-03-12T00:04:48.684Z,97529.73
2019-03-12T00:05:40.867Z,97528.65
2019-03-12T00:06:31.202Z,97539.20
2019-03-12T00:07:22.569Z,97542.70
2019-03-12T00:08:12.534Z,97529.70
2019-03-12T00:09:03.333Z,97548.67
2019-03-12T00:09:55.340Z,97543.00
2019-03-12T00:10:45.599Z,97524.30
2019-03-12T00:11:36.822Z,97511.04
2019-03-12T00:12:27.497Z,97524.03
2019-03-12T00:13:18.063Z,97539.20
2019-03-12T00:14:09.015Z,97538.13
2019-03-12T00:15:00.370Z,97545.43
2019-03-12T00:15:50.465Z,97543.78
2019-03-12T00:16:41.525Z,97550.55
2019-03-12T00:17:32.120Z,97541.63
2019-03-12T00:18:22.538Z,97550.56
2019-03-12T00:19:13.686Z,97538.13
2019-03-12T00:20:04.056Z,97543.78
2019-03-12T00:20:55.639Z,97546.77
2019-03-12T00:21:46.042Z,97540.55
2019-03-12T00:22:36.828Z,97544.86
2019-03-12T00:23:27.204Z,97549.20
2019-03-12T00:24:17.843Z,97566.27
2019-03-12T00:25:07.946Z,97563.02
2019-03-12T00:25:58.088Z,97552.44
2019-03-12T00:26:48.711Z,97552.72
2019-03-12T00:27:39.340Z,97561.66
2019-03-12T00:28:30.599Z,97562.21
2019-03-12T00:29:20.528Z,97566.53
2019-03-12T00:30:10.698Z,97556.25
2019-03-12T00:31:01.832Z,97550.03
2019-03-12T00:31:52.555Z,97549.75
2019-03-12T00:32:43.815Z,97552.17
2019-03-12T00:33:34.476Z,97550.81
2019-03-12T00:34:26.036Z,97547.84
2019-03-12T00:35:16.017Z,97551.92
2019-03-12T00:36:07.437Z,97569.23
2019-03-12T00:36:57.823Z,97551.62
2019-03-12T00:37:48.115Z,97557.32
2019-03-12T00:38:38.925Z,97549.20
2019-03-12T00:39:29.421Z,97555.43
2019-03-12T00:40:19.769Z,97550.56
2019-03-12T00:41:10.903Z,97561.37
2019-03-12T00:42:02.170Z,97547.56
2019-03-12T00:42:52.909Z,97545.69
2019-03-12T00:43:43.979Z,97534.58
2019-03-12T00:44:34.227Z,97551.92
2019-03-12T00:45:24.913Z,97536.73
2019-03-12T00:46:15.782Z,97542.97
2019-03-12T00:47:06.909Z,97545.39
2019-03-12T00:47:57.840Z,97555.41
2019-03-12T00:48:48.372Z,97547.30
2019-03-12T00:49:38.658Z,97555.17
2019-03-12T00:50:28.555Z,97555.41
2019-03-12T00:51:19.470Z,97546.48
2019-03-12T00:52:10.076Z,97547.28
2019-03-12T00:53:00.356Z,97562.73
2019-03-12T00:53:50.547Z,97566.26
2019-03-12T00:54:41.275Z,97558.69
2019-03-12T00:55:31.894Z,97548.11
2019-03-12T00:56:22.148Z,97550.55
2019-03-12T00:57:12.708Z,97564.09
2019-03-12T00:58:03.040Z,97550.83
2019-03-12T00:58:54.141Z,97551.37
2019-03-12T00:59:44.999Z,97553.52
2019-03-12T01:00:35.635Z,97559.21
2019-03-12T01:01:25.744Z,97563.53
2019-03-12T01:02:16.390Z,97552.98
2019-03-12T01:03:06.810Z,97561.37
2019-03-12T01:03:58.244Z,97557.59
2019-03-12T01:04:49.234Z,97560.02
2019-03-12T01:05:39.209Z,97555.41
2019-03-12T01:06:29.550Z,97563.53
2019-03-12T01:07:19.910Z,97550.53
2019-03-12T01:08:10.498Z,97562.73
2019-03-12T01:09:01.147Z,97557.04
2019-03-12T01:09:51.464Z,97557.88
2019-03-12T01:10:41.933Z,97569.48
2019-03-12T01:11:32.531Z,97562.18
2019-03-12T01:12:22.796Z,97557.31
2019-03-12T01:13:22.207Z,97558.41
2019-03-12T01:14:13.163Z,97570.32
2019-03-12T01:15:03.784Z,97571.13
2019-03-12T01:15:54.508Z,97551.09
2019-03-12T01:16:44.846Z,97564.35
2019-03-12T01:17:35.332Z,97558.95
2019-03-12T01:18:26.080Z,97563.27
2019-03-12T01:19:16.618Z,97561.66
2019-03-12T01:20:09.454Z,97557.31
2019-03-12T01:21:00.611Z,97569.50
2019-03-12T01:21:52.012Z,97565.46
2019-03-12T01:22:43.184Z,97561.10
2019-03-12T01:23:33.458Z,97581.97
2019-03-12T01:24:26.012Z,97577.08
2019-03-12T01:25:16.966Z,97572.22
2019-03-12T01:26:08.330Z,97569.50
2019-03-12T01:26:58.573Z,97573.05
2019-03-12T01:27:50.032Z,97580.59
2019-03-12T01:28:40.137Z,97578.98
2019-03-12T01:29:30.852Z,97581.41
2019-03-12T01:30:21.190Z,97578.98
2019-03-12T01:31:12.031Z,97583.05
2019-03-12T01:32:02.677Z,97580.06
2019-03-12T01:32:52.869Z,97586.83
2019-03-12T01:33:43.717Z,97581.41
2019-03-12T01:34:34.042Z,97592.52
2019-03-12T01:35:24.373Z,97588.45
2019-03-12T01:36:16.333Z,97588.99
2019-03-12T01:37:07.180Z,97606.59
2019-03-12T01:37:58.031Z,97585.22
2019-03-12T01:38:49.066Z,97583.30
2019-03-12T01:39:40.501Z,97587.94
2019-03-12T01:40:31.282Z,97595.52
2019-03-12T01:41:22.329Z,97600.63
2019-03-12T01:42:12.614Z,97606.33
2019-03-12T01:43:03.709Z,97616.36
2019-03-12T01:43:54.345Z,97619.05
2019-03-12T01:44:45.144Z,97594.94
2019-03-12T01:45:35.193Z,97606.88
2019-03-12T01:46:25.618Z,97604.98
2019-03-12T01:47:16.828Z,97599.02
2019-03-12T01:48:07.720Z,97603.08
2019-03-12T01:48:58.839Z,97599.02
2019-03-12T01:49:49.346Z,97602.00
2019-03-12T01:50:39.971Z,97606.05
2019-03-12T01:51:31.327Z,97610.11
2019-03-12T01:52:20.885Z,97617.70
2019-03-12T01:53:11.356Z,97607.42
2019-03-12T01:54:02.117Z,97606.59
2019-03-12T01:54:53.054Z,97615.80
2019-03-12T01:55:44.050Z,97605.25
2019-03-12T01:56:34.415Z,97603.89
2019-03-12T01:57:25.330Z,97606.34
2019-03-12T01:58:15.815Z,97593.59
2019-03-12T01:59:07.430Z,97601.47
2019-03-12T01:59:58.299Z,97597.11
2019-03-12T02:00:48.613Z,97602.53
2019-03-12T02:01:38.835Z,97584.41
2019-03-12T02:02:29.485Z,97584.93
2019-03-12T02:03:20.863Z,97591.70
2019-03-12T02:04:11.747Z,97605.77
2019-03-12T02:05:02.591Z,97600.92
2019-03-12T02:05:52.925Z,97594.97
2019-03-12T02:06:43.371Z,97599.81
2019-03-12T02:07:33.517Z,97597.92
2019-03-12T02:08:24.365Z,97601.98
2019-03-12T02:09:15.247Z,97606.58
2019-03-12T02:10:06.137Z,97601.73
2019-03-12T02:10:57.075Z,97606.33
2019-03-12T02:11:47.507Z,97622.28
2019-03-12T02:12:38.217Z,97605.80
2019-03-12T02:13:29.760Z,97602.26
2019-03-12T02:14:30.071Z,97601.72
2019-03-12T02:15:22.952Z,97602.53
2019-03-12T02:16:13.616Z,97597.40
2019-03-12T02:17:04.236Z,97607.67
2019-03-12T02:17:55.162Z,97599.55
2019-03-12T02:18:46.147Z,97603.62
2019-03-12T02:19:37.612Z,97602.81
2019-03-12T02:20:28.438Z,97610.64
2019-03-12T02:21:18.513Z,97609.84
2019-03-12T02:22:09.609Z,97601.45
2019-03-12T02:23:00.200Z,97619.34
2019-03-12T02:23:51.515Z,97612.00
2019-03-12T02:24:52.125Z,97600.11
2019-03-12T02:25:32.440Z,97614.44
2019-03-12T02:26:23.574Z,97607.41
2019-03-12T02:27:14.494Z,97612.56
2019-03-12T02:28:04.889Z,97606.04
2019-03-12T02:28:55.088Z,97612.27
2019-03-12T02:29:45.396Z,97605.25
2019-03-12T02:30:36.402Z,97614.45
2019-03-12T02:31:27.344Z,97627.44
2019-03-12T02:32:18.627Z,97593.34
2019-03-12T02:33:08.916Z,97603.08
2019-03-12T02:33:59.302Z,97605.80
2019-03-12T02:34:50.212Z,97607.67
2019-03-12T02:35:41.209Z,97604.70
2019-03-12T02:36:31.394Z,97600.91
2019-03-12T02:37:22.306Z,97605.77
2019-03-12T02:38:12.432Z,97603.36
2019-03-12T02:39:02.460Z,97600.08
2019-03-12T02:39:55.032Z,97604.14
2019-03-12T02:40:45.716Z,97610.37
2019-03-12T02:41:36.182Z,97606.86
2019-03-12T02:42:27.090Z,97623.11
2019-03-12T02:43:17.297Z,97611.74
2019-03-12T02:44:07.974Z,97613.38
2019-03-12T02:44:59.128Z,97622.29
2019-03-12T02:45:49.627Z,97612.53
2019-03-12T04:01:55.461Z,97746.51
2019-03-12T04:02:45.934Z,97740.26
2019-03-12T04:03:36.621Z,97757.31
2019-03-12T04:04:26.928Z,97744.87
2019-03-12T04:05:17.425Z,97754.60
2019-03-12T04:06:07.636Z,97741.89
2019-03-12T04:06:58.416Z,97750.54
2019-03-12T04:07:48.843Z,97746.75
2019-03-12T04:08:39.967Z,97752.97
2019-03-12T04:09:30.901Z,97746.48
2019-03-12T04:10:21.639Z,97751.90
2019-03-12T04:11:12.567Z,97750.52
2019-03-12T04:12:02.940Z,97748.63
2019-03-12T04:12:55.936Z,97746.75
2019-03-12T04:13:48.358Z,97747.81
2019-03-12T04:14:39.923Z,97755.94
2019-03-12T04:15:30.790Z,97751.63
2019-03-12T04:16:22.010Z,97748.35
2019-03-12T04:17:12.667Z,97756.76
2019-03-12T04:18:04.856Z,97749.98
2019-03-12T04:18:56.556Z,97762.70
2019-03-12T04:19:47.668Z,97762.16
2019-03-12T04:20:38.766Z,97756.75
2019-03-12T04:21:29.542Z,97762.95
2019-03-12T04:22:20.289Z,97764.88
2019-03-12T04:23:10.460Z,97743.48
2019-03-12T04:24:01.036Z,97757.78
2019-03-12T04:24:52.087Z,97755.36
2019-03-12T04:25:42.959Z,97749.66
2019-03-12T04:26:34.183Z,97760.23
2019-03-12T04:27:26.485Z,97765.58
2019-03-12T04:28:17.210Z,97766.43
2019-03-12T04:29:08.218Z,97756.68
2019-03-12T04:29:58.600Z,97772.91
2019-03-12T04:30:49.901Z,97765.89
2019-03-12T04:31:39.980Z,97769.70
2019-03-12T04:32:31.116Z,97779.70
2019-03-12T04:34:03.216Z,97766.43
2019-03-12T04:34:53.789Z,97766.17
2019-03-12T04:35:44.892Z,97774.83
2019-03-12T04:36:36.241Z,97766.69
2019-03-12T04:37:26.767Z,97766.43
2019-03-12T04:38:18.079Z,97768.60
2019-03-12T04:39:08.951Z,97772.09
2019-03-12T04:39:59.420Z,97775.87
2019-03-12T04:40:51.702Z,97767.50
2019-03-12T04:41:42.086Z,97771.84
2019-03-12T04:42:32.432Z,97770.20
2019-03-12T04:43:23.591Z,97776.15
2019-03-12T04:44:14.055Z,97763.98
2019-03-12T04:45:05.055Z,97766.69
2019-03-12T04:45:56.916Z,97771.84
2019-03-12T04:46:47.716Z,97767.25
2019-03-12T04:47:38.827Z,97770.48
2019-03-12T04:48:29.781Z,97770.73
2019-03-12T04:49:20.356Z,97757.78
2019-03-12T04:50:10.670Z,97777.50
2019-03-12T04:51:00.733Z,97782.37
2019-03-12T04:51:51.593Z,97777.50
2019-03-12T04:52:41.899Z,97773.70
2019-03-12T04:53:32.510Z,97774.52
2019-03-12T04:54:22.900Z,97779.39
2019-03-12T04:55:13.922Z,97778.04
2019-03-12T04:56:04.307Z,97775.08
2019-03-12T04:56:55.241Z,97786.44
2019-03-12T04:57:46.514Z,97782.91
2019-03-12T04:58:36.813Z,97780.49
2019-03-12T04:59:28.050Z,97772.38
2019-03-12T05:00:18.650Z,97784.02
2019-03-12T05:01:12.380Z,97775.64
2019-03-12T05:02:04.232Z,97772.94
2019-03-12T05:02:54.808Z,97784.55
2019-03-12T05:03:45.239Z,97790.78
2019-03-12T05:04:36.396Z,97792.38
2019-03-12T05:05:27.309Z,97791.84
2019-03-12T05:06:19.853Z,97788.61
2019-03-12T05:07:07.841Z,97795.12
2019-03-12T05:08:00.592Z,97787.00
2019-03-12T05:08:52.966Z,97792.95
2019-03-12T05:09:43.893Z,97800.78
2019-03-12T05:10:34.537Z,97792.38
2019-03-12T05:11:25.241Z,97795.91
2019-03-12T05:12:16.876Z,97786.72
2019-03-12T05:13:08.032Z,97798.33
2019-03-12T05:14:21.361Z,97798.05
2019-03-12T05:15:13.323Z,97799.68
2019-03-12T05:16:03.276Z,97813.45
2019-03-12T05:17:20.072Z,97803.99
2019-03-12T05:18:10.906Z,97807.27
2019-03-12T05:19:01.569Z,97796.19
2019-03-12T05:19:52.249Z,97813.74
2019-03-12T05:20:44.155Z,97812.14
2019-03-12T05:21:35.140Z,97808.08
2019-03-12T05:22:25.570Z,97808.61
2019-03-12T05:23:17.279Z,97812.92
2019-03-12T05:24:07.673Z,97818.91
2019-03-12T05:24:58.305Z,97820.00
2019-03-12T05:25:48.727Z,97815.66
2019-03-12T05:26:39.351Z,97816.48
2019-03-12T05:27:30.884Z,97822.70
2019-03-12T05:28:21.290Z,97818.65
2019-03-12T05:29:12.622Z,97819.47
2019-03-12T05:30:05.529Z,97814.06
2019-03-12T05:30:55.920Z,97816.26
2019-03-12T05:31:46.304Z,97819.75
2019-03-12T05:32:36.500Z,97820.03
2019-03-12T05:33:26.993Z,97813.27
2019-03-12T05:34:17.342Z,97823.02
2019-03-12T05:35:08.210Z,97830.29
2019-03-12T05:35:58.928Z,97828.13
2019-03-12T05:36:49.820Z,97838.94
2019-03-12T05:37:40.230Z,97839.94
2019-03-12T05:38:30.759Z,97841.33
2019-03-12T05:39:21.586Z,97836.77
2019-03-12T05:40:12.234Z,97849.20
2019-03-12T05:41:02.457Z,97841.36
2019-03-12T05:41:53.386Z,97846.77
2019-03-12T05:42:44.123Z,97843.81
2019-03-12T05:43:35.449Z,97847.88
2019-03-12T05:44:26.186Z,97853.82
2019-03-12T05:45:16.511Z,97858.45
2019-03-12T05:46:11.220Z,97864.11
2019-03-12T05:47:02.256Z,97860.34
2019-03-12T05:47:54.489Z,97852.25
2019-03-12T05:48:46.281Z,97854.11
2019-03-12T05:49:36.870Z,97844.64
2019-03-12T05:50:27.688Z,97857.63
2019-03-12T05:51:18.295Z,97854.92
2019-03-12T05:52:08.485Z,97871.69
2019-03-12T05:53:12.042Z,97864.39
2019-03-12T05:54:01.980Z,97867.38
2019-03-12T05:54:52.203Z,97872.27
2019-03-12T05:55:42.797Z,97877.67
2019-03-12T05:56:34.032Z,97879.59
2019-03-12T05:57:25.058Z,97872.30
2019-03-12T05:58:16.490Z,97879.88
2019-03-12T05:59:07.071Z,97873.91
2019-03-12T05:59:57.731Z,97864.17
2019-03-12T06:00:48.359Z,97883.62
2019-03-12T06:01:39.719Z,97880.66
2019-03-12T06:02:30.828Z,97887.97
2019-03-12T06:03:22.425Z,97893.34
2019-03-12T06:04:12.843Z,97897.94
2019-03-12T06:05:03.979Z,97891.73
2019-03-12T06:05:54.527Z,97894.45
2019-03-12T06:06:45.199Z,97898.00
2019-03-12T06:07:35.895Z,97912.60
2019-03-12T06:08:27.484Z,97895.02
2019-03-12T06:09:29.713Z,97898.83
2019-03-12T06:10:09.735Z,97898.83
2019-03-12T06:11:00.923Z,97903.45
2019-03-12T06:11:51.567Z,97892.91
2019-03-12T06:12:41.997Z,97892.38
2019-03-12T06:13:32.572Z,97889.70
2019-03-12T06:14:22.931Z,97885.89
2019-03-12T06:15:13.712Z,97877.52
2019-03-12T06:16:07.041Z,97870.22
2019-03-12T06:16:57.566Z,97877.80
2019-03-12T06:17:48.691Z,97891.63
2019-03-12T06:18:39.285Z,97902.17
2019-03-12T06:19:30.177Z,97898.39
2019-03-12T06:20:20.522Z,97904.37
2019-03-12T06:21:12.116Z,97904.34
2019-03-12T06:22:02.653Z,97902.17
2019-03-12T06:22:53.941Z,97910.57
2019-03-12T06:23:44.791Z,97913.81
2019-03-12T06:24:36.224Z,97922.75
2019-03-12T06:25:27.154Z,97922.19
2019-03-12T06:26:18.854Z,97917.09
2019-03-12T06:27:09.857Z,97922.75
2019-03-12T06:28:00.486Z,97927.59
2019-03-12T06:28:51.351Z,97918.94
2019-03-12T06:29:42.093Z,97921.11
2019-03-12T06:30:33.706Z,97931.66
2019-03-12T06:31:42.653Z,97932.44
2019-03-12T06:32:59.182Z,97935.72
2019-03-12T06:33:59.100Z,97943.30
2019-03-12T06:35:14.758Z,97936.54
2019-03-12T06:36:19.316Z,97940.31
2019-03-12T06:37:23.558Z,97949.22
2019-03-12T06:38:22.300Z,97939.50
2019-03-12T06:39:18.597Z,97938.88
2019-03-12T06:40:37.591Z,97946.79
2019-03-12T06:41:42.259Z,97939.49
2019-03-12T06:42:52.437Z,97947.11
2019-03-12T06:43:58.671Z,97952.00
2019-03-12T06:45:07.817Z,97953.11
2019-03-12T06:46:36.679Z,97957.70
2019-03-12T06:47:52.595Z,97953.92
2019-03-12T06:48:56.649Z,97960.20
2019-03-12T06:49:57.437Z,97951.27
2019-03-12T06:50:59.768Z,97943.44
2019-03-12T06:52:25.748Z,97949.67
2019-03-12T06:53:41.758Z,97947.82
2019-03-12T06:54:58.482Z,97948.11
2019-03-12T06:56:00.572Z,97941.09
2019-03-12T06:57:11.464Z,97944.66
2019-03-12T06:58:24.773Z,97954.98
2019-03-12T06:59:28.481Z,97960.04
2019-03-12T07:00:38.948Z,97954.41
2019-03-12T07:01:51.695Z,97959.55
2019-03-12T07:03:01.732Z,97965.81
2019-03-12T07:04:10.468Z,97970.45
2019-03-12T07:05:32.499Z,97964.78
2019-03-12T07:06:41.217Z,97964.53
2019-03-12T07:07:55.271Z,97979.39
2019-03-12T07:09:01.559Z,97975.65
2019-03-12T07:10:05.212Z,97978.92
2019-03-12T07:11:05.266Z,97974.08
2019-03-12T07:11:59.673Z,97985.16
2019-03-12T07:13:18.688Z,97988.94
2019-03-12T07:14:16.520Z,97987.34
2019-03-12T07:15:23.543Z,97991.97
2019-03-12T07:16:33.799Z,97991.14
2019-03-12T07:18:02.439Z,97991.97
2019-03-12T07:19:04.782Z,97993.00
2019-03-12T07:20:20.428Z,97986.73
2019-03-12T07:21:32.111Z,97979.64
2019-03-12T07:22:43.080Z,97997.77
2019-03-12T07:23:53.374Z,97995.59
2019-03-12T07:25:02.202Z,97999.13
2019-03-12T07:26:17.260Z,97994.89
2019-03-12T07:27:29.621Z,98003.84
2019-03-12T07:28:50.255Z,97993.30
2019-03-12T07:29:54.311Z,98003.87
2019-03-12T07:30:53.141Z,98001.70
2019-03-12T07:32:12.276Z,97995.72
2019-03-12T07:33:19.491Z,98007.06
2019-03-12T07:34:36.112Z,97996.00
2019-03-12T07:35:44.918Z,97997.39
2019-03-12T07:36:54.158Z,98000.88
2019-03-12T07:38:07.725Z,98013.84
2019-03-12T07:39:11.140Z,98013.34
2019-03-12T07:40:30.585Z,98004.66
2019-03-12T07:41:40.196Z,98000.88
2019-03-12T07:43:02.943Z,98007.69
2019-03-12T07:44:21.761Z,98028.57
2019-03-12T07:45:42.350Z,98018.97
2019-03-12T07:46:50.734Z,98016.06
2019-03-12T07:47:59.996Z,98009.86
2019-03-12T07:49:08.909Z,98010.27
2019-03-12T07:50:19.806Z,98017.03
2019-03-12T07:51:30.604Z,98019.53
2019-03-12T07:52:41.913Z,98021.47
2019-03-12T07:53:59.508Z,98017.74
2019-03-12T07:55:01.114Z,98027.13
2019-03-12T07:56:17.088Z,98010.44
2019-03-12T07:57:15.061Z,98031.36
2019-03-12T07:58:18.113Z,98031.98
2019-03-12T07:59:26.989Z,98023.07
2019-03-12T08:00:41.098Z,98023.57
2019-03-12T08:01:49.968Z,98033.25
2019-03-12T08:03:12.788Z,98029.23
2019-03-12T08:04:15.160Z,98033.55
2019-03-12T08:05:28.491Z,98031.08
2019-03-12T08:06:40.720Z,98037.31
2019-03-12T08:07:49.381Z,98037.39
2019-03-12T08:09:05.438Z,98037.03
2019-03-12T08:10:22.358Z,98041.09
2019-03-12T08:11:38.619Z,98053.02
2019-03-12T08:12:54.217Z,98041.41
2019-03-12T08:14:03.972Z,98044.38
2019-03-12T08:15:02.534Z,98031.94
2019-03-12T08:16:07.669Z,98039.03
2019-03-12T08:17:17.789Z,98039.89
2019-03-12T08:18:21.772Z,98040.39
2019-03-12T08:19:40.330Z,98040.11
2019-03-12T08:20:50.290Z,98028.98
2019-03-12T08:22:07.602Z,98029.31
2019-03-12T08:23:20.213Z,98038.75
2019-03-12T08:24:30.909Z,98027.70
2019-03-12T08:25:47.941Z,98034.52
2019-03-12T08:26:52.113Z,98040.25
2019-03-12T08:28:02.639Z,98035.66
2019-03-12T08:29:08.040Z,98029.52
2019-03-12T08:30:27.841Z,98033.52
2019-03-12T08:31:41.244Z,98034.09
2019-03-12T08:32:50.040Z,98037.94
2019-03-12T08:33:58.423Z,98025.73
2019-03-12T08:35:27.428Z,98039.54
2019-03-12T08:36:43.366Z,98038.19
2019-03-12T08:38:02.457Z,98027.63
2019-03-12T08:39:24.787Z,98036.61
2019-03-12T08:40:35.878Z,98036.10
2019-03-12T08:41:52.038Z,98037.23
2019-03-12T08:43:00.982Z,98034.27
2019-03-12T08:43:58.116Z,98030.47
2019-03-12T08:45:11.240Z,98027.77
2019-03-12T08:46:24.820Z,98028.02
2019-03-12T08:47:37.448Z,98024.75
2019-03-12T08:48:50.919Z,98038.05
2019-03-12T08:50:03.436Z,98033.98
2019-03-12T08:51:12.621Z,98027.20
2019-03-12T08:52:25.431Z,98033.70
2019-03-12T08:53:34.910Z,98028.00
2019-03-12T08:54:34.489Z,98034.83
2019-03-12T08:55:48.114Z,98026.17
2019-03-12T08:56:57.579Z,98014.52
2019-03-12T08:58:11.406Z,98021.88
2019-03-12T08:59:21.531Z,98029.42
2019-03-12T09:00:30.865Z,98029.98
2019-03-12T09:01:46.968Z,98026.20
2019-03-12T09:02:51.759Z,98027.30
2019-03-12T09:04:01.688Z,98027.00
2019-03-12T09:05:14.391Z,98020.78
2019-03-12T09:06:29.951Z,98026.48
2019-03-12T09:07:40.482Z,98024.58
2019-03-12T09:08:39.963Z,98024.05
2019-03-12T09:10:05.766Z,98027.59
2019-03-12T09:11:33.917Z,98030.84
2019-03-12T09:12:40.172Z,98038.44
2019-03-12T09:13:45.828Z,98035.45
2019-03-12T09:14:56.374Z,98030.82
2019-03-12T09:16:06.136Z,98028.67
2019-03-12T09:17:15.123Z,98036.48
2019-03-12T09:18:25.533Z,98032.97
2019-03-12T09:19:33.157Z,98030.30
2019-03-12T09:20:49.704Z,98035.22
2019-03-12T09:21:59.758Z,98038.46
2019-03-12T09:23:07.346Z,98040.09
2019-03-12T09:24:21.182Z,98034.14
2019-03-12T09:25:23.143Z,98032.24
2019-03-12T09:26:37.827Z,98040.09
2019-03-12T09:27:48.268Z,98036.61
2019-03-12T09:28:46.776Z,98046.38
2019-03-12T09:29:55.515Z,98042.34
2019-03-12T09:31:08.948Z,98036.36
2019-03-12T09:32:18.697Z,98043.42
2019-03-12T09:33:14.048Z,98043.42
2019-03-12T09:34:32.699Z,98050.49
2019-03-12T09:35:49.529Z,98043.45
2019-03-12T09:37:02.959Z,98050.50
2019-03-12T09:38:00.780Z,98057.55
2019-03-12T09:39:16.581Z,98051.59
2019-03-12T09:40:27.336Z,98053.75
2019-03-12T09:41:37.440Z,98056.73
2019-03-12T09:42:54.088Z,98056.47
2019-03-12T09:43:52.954Z,98048.88
2019-03-12T09:45:09.566Z,98048.88
2019-03-12T09:46:20.314Z,98054.03
2019-03-12T09:47:20.015Z,98045.07
2019-03-12T09:48:18.162Z,98061.39
2019-03-12T09:49:40.497Z,98060.05
2019-03-12T09:50:58.304Z,98052.98
2019-03-12T09:52:02.607Z,98062.77
2019-03-12T09:53:28.660Z,98064.13
2019-03-12T09:54:29.870Z,98051.36
2019-03-12T09:55:38.380Z,98070.38
2019-03-12T09:56:53.175Z,98060.34
2019-03-12T09:58:04.537Z,98069.29
2019-03-12T09:59:22.537Z,98067.95
2019-03-12T10:00:39.828Z,98064.94
2019-03-12T10:01:52.771Z,98058.95
2019-03-12T10:03:15.104Z,98068.22
2019-03-12T10:04:24.567Z,98069.28
2019-03-12T10:05:35.189Z,98070.10
2019-03-12T10:07:03.472Z,98063.31
2019-03-12T10:08:11.108Z,98067.94
2019-03-12T10:09:17.232Z,98063.32
2019-03-12T10:10:30.425Z,98065.77
2019-03-12T10:11:47.189Z,98061.67
2019-03-12T10:13:03.110Z,98069.00
2019-03-12T10:14:10.285Z,98071.44
2019-03-12T10:15:17.079Z,98072.80
2019-03-12T10:16:32.716Z,98070.09
2019-03-12T10:18:02.789Z,98057.85
2019-03-12T10:19:06.715Z,98058.11
2019-03-12T10:20:08.831Z,98046.98
2019-03-12T10:21:19.484Z,98049.16
2019-03-12T10:22:33.751Z,98060.31
2019-03-12T10:23:48.892Z,98077.72
2019-03-12T10:25:05.443Z,98072.83
2019-03-12T10:26:18.457Z,98059.25
2019-03-12T10:27:37.393Z,98057.63
2019-03-12T10:28:49.135Z,98064.13
2019-03-12T10:30:11.622Z,98059.52
2019-03-12T10:31:22.124Z,98064.95
2019-03-12T10:32:24.041Z,98063.04
2019-03-12T10:33:34.441Z,98066.31
2019-03-12T10:34:47.441Z,98063.58
2019-03-12T10:36:01.240Z,98057.08
2019-03-12T10:37:12.083Z,98051.91
2019-03-12T10:38:20.385Z,98063.33
2019-03-12T10:40:19.026Z,98045.38
2019-03-12T10:41:38.021Z,98048.11
2019-03-12T10:42:37.460Z,98044.55
2019-03-12T10:43:37.574Z,98041.30
2019-03-12T10:44:37.461Z,98032.30
2019-03-12T10:45:46.309Z,98039.02
2019-03-12T10:46:50.312Z,98029.41
2019-03-12T10:47:41.147Z,98029.08
2019-03-12T10:48:33.026Z,98028.44
2019-03-12T10:49:36.651Z,98028.30
2019-03-12T10:50:15.306Z,98027.31
2019-03-12T10:51:06.005Z,98032.86
2019-03-12T10:51:56.495Z,98023.28
2019-03-12T10:52:46.951Z,98022.61
2019-03-12T10:53:37.572Z,98020.08
2019-03-12T10:54:27.750Z,98025.43
2019-03-12T10:55:22.158Z,98021.53
2019-03-12T10:56:13.204Z,98021.20
2019-03-12T10:57:03.942Z,98015.64
2019-03-12T10:57:56.176Z,98019.59
2019-03-12T10:58:46.232Z,98011.47
2019-03-12T10:59:37.215Z,98018.56
2019-03-12T11:00:28.350Z,98009.70
2019-03-12T11:01:19.176Z,98010.61
2019-03-12T11:02:09.897Z,98011.45
2019-03-12T11:03:01.385Z,98010.55
2019-03-12T11:03:52.763Z,98004.84
2019-03-12T11:04:44.223Z,98011.94
2019-03-12T11:05:45.282Z,98001.23
2019-03-12T11:06:26.233Z,98003.43
2019-03-12T11:07:17.159Z,97999.86
2019-03-12T11:08:08.618Z,98003.16
2019-03-12T11:09:00.435Z,97992.72
2019-03-12T11:09:51.186Z,98000.50
2019-03-12T11:10:41.641Z,98000.13
2019-03-12T11:11:32.856Z,98000.66
2019-03-12T11:12:23.430Z,97993.45
2019-03-12T11:13:14.952Z,98001.55
2019-03-12T11:14:04.658Z,97996.35
2019-03-12T11:14:55.615Z,97995.08
2019-03-12T11:15:46.176Z,97997.72
2019-03-12T11:16:36.867Z,97996.63
2019-03-12T11:17:27.753Z,97988.56
2019-03-12T11:18:19.047Z,97979.69
2019-03-12T11:19:09.892Z,97986.91
2019-03-12T11:19:59.916Z,97994.51
2019-03-12T11:20:51.512Z,97990.80
2019-03-12T11:21:43.409Z,97981.63
2019-03-12T11:22:34.853Z,97988.42
2019-03-12T11:23:25.594Z,97990.33
2019-03-12T11:24:15.919Z,97988.53
2019-03-12T11:25:09.307Z,97985.48
2019-03-12T11:26:00.539Z,97978.23
2019-03-12T11:26:52.601Z,97992.98
2019-03-12T11:27:43.857Z,97980.38
2019-03-12T11:28:34.810Z,97990.43
2019-03-12T11:29:26.076Z,97978.72
2019-03-12T11:30:16.886Z,97988.87
2019-03-12T11:31:07.545Z,97985.37
2019-03-12T11:31:59.565Z,97979.48
2019-03-12T11:32:50.318Z,97979.68
2019-03-12T11:33:41.589Z,97982.41
2019-03-12T11:34:32.531Z,97983.70
2019-03-12T11:35:23.435Z,97980.81
2019-03-12T11:36:14.434Z,97980.84
2019-03-12T11:37:04.937Z,97968.89
2019-03-12T11:37:55.830Z,97974.20
2019-03-12T11:38:46.950Z,97972.56
2019-03-12T11:39:37.577Z,97973.11
2019-03-12T11:40:31.849Z,97970.38
2019-03-12T11:41:19.281Z,97976.34
2019-03-12T11:42:10.068Z,97972.87
2019-03-12T11:43:01.195Z,97972.09
2019-03-12T11:43:52.321Z,97969.58
2019-03-12T11:44:42.611Z,97974.00
2019-03-12T11:45:36.615Z,97972.63
2019-03-12T11:46:24.574Z,97966.52
2019-03-12T11:47:15.979Z,97960.50
2019-03-12T11:48:06.512Z,97963.80
2019-03-12T11:48:57.265Z,97962.14
2019-03-12T11:49:48.837Z,97970.81
2019-03-12T11:50:39.430Z,97965.75
2019-03-12T11:51:30.590Z,97952.70
2019-03-12T11:52:21.259Z,97960.86
2019-03-12T11:53:12.377Z,97959.75
2019-03-12T11:54:03.034Z,97956.48
2019-03-12T11:54:53.303Z,97954.30
2019-03-12T11:55:44.396Z,97954.30
2019-03-12T11:56:35.560Z,97956.50
2019-03-12T11:57:26.321Z,97954.59
2019-03-12T11:58:17.987Z,97964.44
2019-03-12T11:59:08.196Z,97957.91
2019-03-12T11:59:59.003Z,97953.28
2019-03-12T12:00:54.759Z,97953.84
2019-03-12T12:01:45.247Z,97956.31
2019-03-12T12:02:36.162Z,97958.77
2019-03-12T12:03:26.587Z,97962.26
2019-03-12T12:04:17.636Z,97953.23
2019-03-12T12:05:08.202Z,97945.61
2019-03-12T12:05:59.393Z,97956.48
2019-03-12T12:06:51.257Z,97954.58
2019-03-12T12:07:42.113Z,97950.41
2019-03-12T12:08:33.446Z,97946.84
2019-03-12T12:09:25.293Z,97950.01
2019-03-12T12:10:16.782Z,97951.37
2019-03-12T12:11:07.657Z,97945.14
2019-03-12T12:11:59.243Z,97944.30
2019-03-12T12:12:49.670Z,97945.72
2019-03-12T12:13:40.023Z,97945.63
2019-03-12T12:14:30.777Z,97940.95
2019-03-12T12:15:22.079Z,97940.03
2019-03-12T12:16:12.932Z,97939.99
2019-03-12T12:17:03.698Z,97937.73
2019-03-12T12:17:54.707Z,97932.29
2019-03-12T12:18:45.270Z,97930.92
2019-03-12T12:19:36.264Z,97924.93
2019-03-12T12:20:30.195Z,97917.85
2019-03-12T12:21:16.407Z,97915.94
2019-03-12T12:22:07.230Z,97923.38
2019-03-12T12:22:58.131Z,97917.85
2019-03-12T12:23:49.607Z,97919.17
2019-03-12T12:24:41.403Z,97909.36
2019-03-12T12:25:31.991Z,97906.09
2019-03-12T12:26:22.296Z,97906.38
2019-03-12T12:27:13.052Z,97898.52
2019-03-12T12:28:04.668Z,97890.39